To NAV CANADA Home Page Login to a new session Search on AWWS site Feedback and Comments Disclaimer Vers la page française équivalente Tips FAQ What's new on the site To the Forecasts and Observations / NOTAM section To "File a Flight Plan" website Publications and other links Update of the User's profile FIC Telephone Numbers My Weather Data Folder Route Weather Data Regional Weather Data Local Weather Data To the Forecasts and Observations / NOTAM section
Request Generated 03/23/2017 at 00:13:42 UTC . Weather information available at that time is displayed.

METAR/TAF

BRANDON MUNICIPALITY/MB    

METAR CYBR 230000Z 16016G24KT 15SM OVC029 M02/M05 A2996 RMK SC8
SLP177=
METAR CYBR 222300Z 15017G23KT 15SM OVC018 M02/M05 A2997 RMK SC8
SLP180=
METAR CYBR 222200Z 15019G26KT 15SM OVC021 M02/M06 A2999 RMK SC8
SLP188=

TAF CYBR 222342Z 2300/2312 13015G25KT P6SM SCT012 OVC030 TEMPO
2300/2306 4SM BR BKN012 OVC030
BECMG 2304/2306 16006KT
FM230600 16006KT 2SM BR OVC006 TEMPO 2306/2309 6SM BR OVC009
FM230900 VRB03KT 3/4SM BR OVC004
RMK NXT FCST BY 230600Z=
Your time UTC time
Weather data provided by Environment Canada and NAV CANADA